Time;durP1;ratioP1;P1;durP2;ratioP2;P2;SDS_P1;SDS_P2;PMS_P1;PMS_P2;Temp;Humidity;BMP_temperature;BMP_pressure;BME280_temperature;BME280_humidity;BME280_pressure;Samples;Min_cycle;Max_cycle;Signal;HPM_P1;HPM_P2
2023/07/08 00:02:30;;;;;;;8.68;5.93;;;23.50;67.30;;;;;;5054228;28;20037;-55
2023/07/08 00:05:19;;;;;;;7.03;5.47;;;23.40;67.20;;;;;;5054371;28;20113;-57
2023/07/08 00:08:05;;;;;;;8.43;6.45;;;23.30;67.50;;;;;;5052102;28;20025;-57
2023/07/08 00:10:51;;;;;;;7.18;6.28;;;23.20;67.60;;;;;;5052350;28;20093;-54
2023/07/08 00:13:37;;;;;;;8.52;6.25;;;23.20;67.80;;;;;;5051449;28;20029;-55
2023/07/08 00:16:24;;;;;;;7.28;6.18;;;23.10;68.00;;;;;;5051988;28;20094;-52
2023/07/08 00:19:10;;;;;;;6.20;5.60;;;23.10;68.70;;;;;;5052790;28;20025;-55
2023/07/08 00:21:56;;;;;;;8.07;5.70;;;23.00;68.30;;;;;;5051243;28;20489;-56
2023/07/08 00:24:43;;;;;;;12.60;9.85;;;23.00;68.40;;;;;;5051402;28;20429;-55
2023/07/08 00:27:28;;;;;;;8.85;7.40;;;23.00;68.60;;;;;;5053397;28;20413;-56
2023/07/08 00:30:24;;;;;;;7.75;5.93;;;22.90;68.70;;;;;;5054763;28;20452;-56
2023/07/08 00:33:10;;;;;;;7.40;6.00;;;22.90;68.70;;;;;;5054622;28;20029;-56
2023/07/08 00:35:56;;;;;;;7.05;5.90;;;22.90;68.80;;;;;;5052529;28;20029;-54
2023/07/08 00:38:46;;;;;;;6.18;5.57;;;22.90;68.90;;;;;;5051127;28;20029;-55
2023/07/08 00:41:41;;;;;;;9.95;5.70;;;22.80;69.20;;;;;;5051642;28;20111;-55
2023/07/08 00:44:27;;;;;;;6.90;5.95;;;22.80;69.40;;;;;;5050610;28;20572;-53
2023/07/08 00:47:15;;;;;;;7.97;5.70;;;22.80;69.60;;;;;;5057059;28;20029;-53
2023/07/08 00:50:05;;;;;;;7.80;6.28;;;22.80;69.80;;;;;;5054426;28;20041;-55
2023/07/08 00:53:22;;;;;;;6.68;6.00;;;22.80;69.80;;;;;;5038887;28;20032;-55
2023/07/08 00:56:32;;;;;;;6.95;5.57;;;22.90;69.90;;;;;;5051277;28;20023;-57
2023/07/08 00:59:27;;;;;;;6.82;6.13;;;22.80;69.90;;;;;;5050770;28;20029;-53
2023/07/08 01:02:16;;;;;;;8.65;5.38;;;22.80;70.40;;;;;;5051122;28;20391;-55
2023/07/08 01:05:07;;;;;;;6.50;5.85;;;22.80;70.90;;;;;;5051303;28;20025;-55
2023/07/08 01:08:00;;;;;;;7.53;5.47;;;22.80;70.90;;;;;;5050585;28;20040;-54
2023/07/08 01:10:52;;;;;;;7.18;6.20;;;22.80;71.30;;;;;;5050072;28;20021;-57
2023/07/08 01:13:43;;;;;;;7.40;6.20;;;22.80;71.60;;;;;;5051877;28;20118;-55
2023/07/08 01:16:33;;;;;;;7.35;5.75;;;22.80;71.20;;;;;;5051014;28;20509;-52
2023/07/08 01:19:32;;;;;;;6.18;5.57;;;22.90;71.10;;;;;;5051234;28;20504;-52
2023/07/08 01:22:18;;;;;;;6.30;5.70;;;22.90;71.10;;;;;;5050152;28;20465;-51
2023/07/08 01:25:05;;;;;;;6.53;5.82;;;22.80;70.90;;;;;;5052582;28;20021;-52
2023/07/08 01:27:55;;;;;;;12.15;9.65;;;22.80;71.00;;;;;;5053158;28;20029;-56
2023/07/08 01:30:45;;;;;;;12.50;10.27;;;22.80;70.80;;;;;;5051517;28;20133;-53
2023/07/08 01:33:33;;;;;;;8.20;7.40;;;22.80;70.50;;;;;;5054209;28;20029;-55
2023/07/08 01:36:19;;;;;;;7.05;6.35;;;22.70;70.60;;;;;;5053347;28;20029;-54
2023/07/08 01:39:05;;;;;;;8.57;5.75;;;22.70;70.80;;;;;;5052484;28;20032;-54
2023/07/08 01:41:53;;;;;;;9.50;8.18;;;22.70;71.20;;;;;;5036202;28;20018;-57
2023/07/08 01:44:39;;;;;;;10.85;9.30;;;22.70;71.10;;;;;;5051628;28;20402;-55
2023/07/08 01:47:25;;;;;;;8.50;6.75;;;22.80;71.10;;;;;;5050988;28;20028;-56
2023/07/08 01:50:11;;;;;;;8.45;6.38;;;22.80;71.40;;;;;;5051835;28;20116;-55
2023/07/08 01:53:00;;;;;;;8.55;6.05;;;22.80;71.90;;;;;;5055318;28;20456;-56
2023/07/08 01:55:46;;;;;;;7.15;6.35;;;22.70;72.60;;;;;;5056411;28;20017;-54
2023/07/08 01:58:32;;;;;;;7.70;5.97;;;22.50;73.70;;;;;;5055794;28;20078;-54
2023/07/08 02:01:18;;;;;;;6.57;5.93;;;22.50;74.30;;;;;;5055410;28;20036;-53
2023/07/08 02:04:04;;;;;;;6.70;6.00;;;22.30;74.30;;;;;;5054246;28;20021;-55
2023/07/08 02:06:55;;;;;;;7.28;5.60;;;22.30;74.40;;;;;;5054037;28;20104;-55
2023/07/08 02:09:41;;;;;;;7.68;6.00;;;22.30;74.50;;;;;;5054989;28;20110;-55
2023/07/08 02:12:27;;;;;;;7.78;6.25;;;22.30;74.60;;;;;;5054151;28;20404;-55
2023/07/08 02:15:13;;;;;;;6.20;5.63;;;22.30;75.00;;;;;;5055945;28;20033;-55
2023/07/08 02:18:00;;;;;;;9.35;6.55;;;22.20;75.90;;;;;;5053779;28;20060;-56
2023/07/08 02:20:46;;;;;;;8.20;6.30;;;22.10;76.40;;;;;;5053615;28;20061;-50
2023/07/08 02:23:32;;;;;;;6.68;5.95;;;22.00;77.00;;;;;;5053870;28;20029;-55
2023/07/08 02:26:18;;;;;;;11.57;6.43;;;21.90;77.00;;;;;;5053579;28;20022;-55
2023/07/08 02:29:04;;;;;;;8.93;6.30;;;21.90;77.00;;;;;;5053560;28;20127;-50
2023/07/08 02:31:50;;;;;;;6.78;5.85;;;21.90;77.10;;;;;;5054605;28;20023;-55
2023/07/08 02:34:36;;;;;;;7.80;6.05;;;21.90;77.30;;;;;;5059874;28;20025;-56
2023/07/08 02:37:22;;;;;;;7.20;6.50;;;21.90;77.30;;;;;;5056459;28;20409;-58
2023/07/08 02:40:09;;;;;;;7.85;5.95;;;21.90;77.60;;;;;;5055218;28;20037;-58
2023/07/08 02:42:55;;;;;;;7.85;6.45;;;21.80;78.40;;;;;;5054821;28;20033;-56
2023/07/08 02:45:41;;;;;;;7.75;7.00;;;21.50;80.10;;;;;;5053892;28;20107;-55
2023/07/08 02:48:27;;;;;;;7.03;6.28;;;21.40;80.80;;;;;;5053365;28;20021;-55
2023/07/08 02:51:13;;;;;;;7.35;6.50;;;21.30;80.40;;;;;;5053320;28;20040;-56
2023/07/08 02:53:59;;;;;;;8.35;7.32;;;21.20;81.40;;;;;;5053182;28;20037;-55
2023/07/08 02:56:45;;;;;;;9.00;6.55;;;21.20;81.50;;;;;;5039936;28;20037;-52
2023/07/08 02:59:31;;;;;;;8.57;6.85;;;21.30;81.70;;;;;;5054281;28;20029;-53
2023/07/08 03:02:16;;;;;;;8.00;6.82;;;21.30;81.80;;;;;;5061591;28;20037;-56
2023/07/08 03:05:05;;;;;;;9.23;6.97;;;21.30;81.80;;;;;;5063054;28;20104;-56
2023/07/08 03:07:50;;;;;;;7.72;6.93;;;21.40;81.50;;;;;;5053506;28;20028;-52
2023/07/08 03:10:36;;;;;;;9.40;6.90;;;21.40;80.70;;;;;;5053048;28;20164;-53
2023/07/08 03:13:23;;;;;;;12.65;7.20;;;21.30;80.20;;;;;;5052949;28;20062;-56
2023/07/08 03:16:12;;;;;;;9.13;7.00;;;21.30;80.40;;;;;;5052454;28;20029;-53
2023/07/08 03:18:58;;;;;;;7.18;6.50;;;21.30;80.80;;;;;;5052547;28;20033;-56
2023/07/08 03:21:44;;;;;;;8.85;7.35;;;21.30;81.30;;;;;;5052388;28;20021;-52
2023/07/08 03:24:30;;;;;;;8.35;7.07;;;21.40;81.90;;;;;;5051868;28;20024;-53
2023/07/08 03:27:16;;;;;;;10.38;6.80;;;21.40;82.20;;;;;;5052945;28;20512;-52
2023/07/08 03:30:05;;;;;;;16.42;7.05;;;21.40;82.20;;;;;;5053053;28;20027;-54
2023/07/08 03:32:51;;;;;;;9.48;7.05;;;21.50;82.10;;;;;;5051824;28;20477;-52
2023/07/08 03:35:38;;;;;;;7.13;6.53;;;21.30;81.60;;;;;;5052336;28;20059;-55
2023/07/08 03:38:24;;;;;;;7.78;6.43;;;21.30;81.50;;;;;;5052300;28;20471;-55
2023/07/08 03:41:10;;;;;;;6.85;6.25;;;21.30;80.90;;;;;;5056844;28;20096;-52
2023/07/08 03:43:56;;;;;;;8.38;6.32;;;21.40;80.60;;;;;;5055345;28;20056;-55
2023/07/08 03:46:44;;;;;;;8.18;6.43;;;21.40;80.60;;;;;;5054937;28;20021;-54
2023/07/08 03:49:30;;;;;;;7.55;6.72;;;21.50;81.40;;;;;;5052034;28;20410;-55
2023/07/08 03:52:17;;;;;;;7.57;6.43;;;21.50;82.80;;;;;;5051503;28;20040;-54
2023/07/08 03:55:03;;;;;;;8.40;6.50;;;21.40;83.00;;;;;;5053683;28;20025;-54
2023/07/08 03:57:49;;;;;;;7.78;6.85;;;21.40;83.70;;;;;;5051614;28;20060;-56
2023/07/08 04:00:35;;;;;;;8.35;6.20;;;21.40;83.20;;;;;;5051675;28;20398;-55
2023/07/08 04:03:21;;;;;;;9.38;7.38;;;21.50;83.90;;;;;;5053398;28;20044;-56
2023/07/08 04:06:07;;;;;;;8.90;6.95;;;21.60;83.00;;;;;;5051558;28;20033;-56
2023/07/08 04:08:53;;;;;;;8.93;6.65;;;21.50;82.90;;;;;;5051501;28;20040;-55
2023/07/08 04:11:39;;;;;;;7.70;6.75;;;21.50;83.10;;;;;;5053173;28;20103;-54
2023/07/08 04:14:25;;;;;;;7.38;6.40;;;21.50;83.20;;;;;;5052329;28;20071;-55
2023/07/08 04:17:11;;;;;;;7.45;6.03;;;21.50;83.30;;;;;;5051642;28;20049;-54
2023/07/08 04:19:57;;;;;;;6.93;6.22;;;21.40;83.50;;;;;;5057684;28;20040;-55
2023/07/08 04:22:43;;;;;;;7.65;6.82;;;21.40;83.80;;;;;;5053795;28;20108;-56
2023/07/08 04:25:29;;;;;;;7.50;6.40;;;21.50;83.70;;;;;;5054652;28;20065;-55
2023/07/08 04:28:16;;;;;;;7.38;6.30;;;21.50;83.60;;;;;;5053670;28;20246;-55
2023/07/08 04:31:03;;;;;;;7.28;6.57;;;21.50;83.60;;;;;;5052646;28;20033;-56
2023/07/08 04:33:49;;;;;;;9.15;6.88;;;21.50;83.90;;;;;;5051882;28;20418;-55
2023/07/08 04:36:36;;;;;;;7.47;6.78;;;21.50;83.90;;;;;;5052633;28;20064;-51
2023/07/08 04:39:22;;;;;;;9.10;6.20;;;21.50;84.00;;;;;;5053156;28;20025;-55
2023/07/08 04:42:08;;;;;;;9.40;6.65;;;21.60;83.90;;;;;;5052298;28;20029;-54
2023/07/08 04:44:54;;;;;;;7.53;6.32;;;21.60;83.80;;;;;;5053651;28;20061;-55
2023/07/08 04:47:40;;;;;;;8.20;6.93;;;21.60;83.50;;;;;;5051239;28;20120;-56
2023/07/08 04:50:26;;;;;;;7.47;6.60;;;21.70;83.20;;;;;;5051272;28;20033;-55
2023/07/08 04:53:12;;;;;;;7.05;6.45;;;21.80;82.90;;;;;;5051572;28;20036;-55
2023/07/08 04:55:59;;;;;;;8.32;6.32;;;21.80;82.30;;;;;;5051292;28;20109;-57
2023/07/08 04:58:45;;;;;;;7.53;6.80;;;21.80;81.80;;;;;;5051015;28;20029;-56
2023/07/08 05:01:31;;;;;;;9.85;7.43;;;21.80;82.00;;;;;;5051128;28;20025;-56
2023/07/08 05:04:19;;;;;;;7.38;6.65;;;21.90;81.10;;;;;;5051071;28;20029;-55
2023/07/08 05:07:05;;;;;;;7.10;6.40;;;21.90;80.90;;;;;;5051411;28;20033;-57
2023/07/08 05:09:51;;;;;;;7.97;6.68;;;22.00;80.60;;;;;;5051893;28;20048;-55
2023/07/08 05:12:37;;;;;;;9.07;6.85;;;22.00;80.20;;;;;;5051637;28;20556;-51
2023/07/08 05:15:23;;;;;;;11.50;6.50;;;22.00;79.30;;;;;;5053813;28;20513;-54
2023/07/08 05:18:09;;;;;;;7.45;6.75;;;22.00;79.50;;;;;;5057033;28;20116;-54
2023/07/08 05:20:56;;;;;;;7.63;6.93;;;22.10;78.70;;;;;;5059616;28;20029;-53
2023/07/08 05:23:44;;;;;;;7.40;6.70;;;22.20;78.20;;;;;;5054125;28;20443;-54
2023/07/08 05:26:30;;;;;;;10.68;7.57;;;22.30;77.80;;;;;;5068672;28;20029;-55
2023/07/08 05:29:16;;;;;;;8.50;7.03;;;22.40;77.70;;;;;;5067827;28;20044;-51
2023/07/08 05:32:02;;;;;;;10.02;7.57;;;22.40;77.90;;;;;;5060871;28;20028;-53
2023/07/08 05:34:48;;;;;;;8.20;7.00;;;22.40;78.00;;;;;;5054553;28;20094;-54
2023/07/08 05:37:34;;;;;;;8.10;7.15;;;22.50;78.10;;;;;;5055745;28;20107;-54
2023/07/08 05:40:20;;;;;;;7.80;6.55;;;22.50;78.10;;;;;;5054491;28;20083;-56
2023/07/08 05:43:06;;;;;;;8.35;6.60;;;22.60;77.80;;;;;;5056022;28;20021;-55
2023/07/08 05:45:58;;;;;;;9.02;6.43;;;22.70;77.20;;;;;;5054914;28;20502;-55
2023/07/08 05:48:44;;;;;;;7.28;5.97;;;22.80;77.00;;;;;;5055110;28;20021;-56
2023/07/08 05:51:30;;;;;;;12.88;6.53;;;22.80;76.30;;;;;;5054738;28;20093;-54
2023/07/08 05:54:16;;;;;;;10.88;6.70;;;22.80;76.00;;;;;;5055287;28;20029;-56
2023/07/08 05:57:02;;;;;;;8.68;6.30;;;22.90;76.30;;;;;;5064778;28;20044;-54
2023/07/08 05:59:49;;;;;;;9.70;6.55;;;23.00;75.60;;;;;;5059640;28;20040;-53
2023/07/08 06:02:35;;;;;;;10.68;6.45;;;23.10;75.20;;;;;;5054435;28;20071;-56
2023/07/08 06:05:21;;;;;;;8.82;6.65;;;23.00;74.40;;;;;;5054918;28;20025;-56
2023/07/08 06:08:08;;;;;;;10.00;6.68;;;23.00;74.30;;;;;;5054007;28;20033;-56
2023/07/08 06:10:54;;;;;;;6.78;6.07;;;23.00;74.50;;;;;;5054291;28;20048;-54
2023/07/08 06:13:40;;;;;;;7.50;6.65;;;23.20;74.20;;;;;;5053261;28;20037;-55
2023/07/08 06:16:29;;;;;;;9.05;8.18;;;23.20;74.00;;;;;;5053572;28;20509;-54
2023/07/08 06:19:16;;;;;;;7.40;6.28;;;23.30;74.20;;;;;;5054292;28;20040;-56
2023/07/08 06:22:03;;;;;;;7.25;6.18;;;23.40;74.30;;;;;;5054508;28;20131;-55
2023/07/08 06:24:49;;;;;;;7.00;5.97;;;23.50;74.20;;;;;;5052451;28;20397;-54
2023/07/08 06:27:35;;;;;;;9.80;6.43;;;23.70;74.00;;;;;;5053375;28;20476;-55
2023/07/08 06:30:21;;;;;;;8.75;6.40;;;23.80;73.60;;;;;;5053373;28;20413;-56
2023/07/08 06:33:07;;;;;;;7.30;5.85;;;23.90;73.20;;;;;;5053949;28;20029;-54
2023/07/08 06:35:53;;;;;;;7.25;6.10;;;23.90;73.30;;;;;;5052456;28;20409;-55
2023/07/08 06:38:38;;;;;;;6.85;6.03;;;24.00;73.20;;;;;;5053106;28;20505;-56
2023/07/08 06:41:24;;;;;;;7.68;6.55;;;24.00;73.10;;;;;;5053135;28;20466;-55
2023/07/08 06:44:11;;;;;;;8.38;6.50;;;24.10;72.80;;;;;;5052299;28;20033;-57
2023/07/08 06:46:57;;;;;;;7.13;6.43;;;24.10;73.00;;;;;;5052953;28;20033;-53
2023/07/08 06:49:43;;;;;;;8.40;7.50;;;24.20;73.20;;;;;;5052290;28;20041;-57
2023/07/08 06:52:33;;;;;;;9.20;8.27;;;24.20;73.00;;;;;;5053886;28;20071;-55
2023/07/08 06:55:20;;;;;;;9.25;7.18;;;24.30;73.00;;;;;;5054290;28;20481;-56
2023/07/08 06:58:06;;;;;;;9.82;6.68;;;24.40;73.10;;;;;;5054037;28;20116;-53
2023/07/08 07:00:52;;;;;;;8.75;7.28;;;24.30;73.10;;;;;;5054579;28;20459;-53
2023/07/08 07:03:39;;;;;;;7.28;6.10;;;24.40;72.90;;;;;;5052824;28;20021;-55
2023/07/08 07:06:25;;;;;;;7.70;6.80;;;24.60;72.80;;;;;;5053596;28;20032;-54
2023/07/08 07:09:11;;;;;;;8.05;7.22;;;24.60;72.30;;;;;;5053381;28;20108;-55
2023/07/08 07:11:57;;;;;;;13.05;9.35;;;24.60;71.60;;;;;;5052673;28;20424;-56
2023/07/08 07:14:43;;;;;;;9.90;7.43;;;24.60;71.90;;;;;;5052752;28;20039;-55
2023/07/08 07:17:29;;;;;;;8.30;6.78;;;24.60;71.80;;;;;;5053255;28;20112;-56
2023/07/08 07:20:15;;;;;;;11.43;8.60;;;24.60;71.30;;;;;;5053033;28;20048;-56
2023/07/08 07:23:01;;;;;;;13.40;10.20;;;24.60;71.50;;;;;;5052133;28;20409;-55
2023/07/08 07:25:48;;;;;;;18.60;15.77;;;24.60;71.60;;;;;;5054362;28;20033;-57
2023/07/08 07:28:34;;;;;;;29.73;24.33;;;24.60;71.90;;;;;;5052706;28;20045;-56
2023/07/08 07:31:19;;;;;;;9.10;7.22;;;24.70;72.10;;;;;;5054412;28;20041;-53
2023/07/08 07:34:06;;;;;;;8.75;6.53;;;24.80;70.70;;;;;;5055533;28;20037;-55
2023/07/08 07:36:52;;;;;;;8.98;7.68;;;24.80;70.70;;;;;;5056720;28;20481;-55
2023/07/08 07:39:38;;;;;;;9.57;7.05;;;25.00;70.90;;;;;;5052465;28;20477;-55
2023/07/08 07:42:27;;;;;;;8.65;7.00;;;25.10;71.00;;;;;;5052134;28;20037;-54
2023/07/08 07:45:14;;;;;;;7.50;6.55;;;25.20;71.00;;;;;;5052835;28;20032;-55
2023/07/08 07:48:00;;;;;;;10.32;7.72;;;25.30;71.00;;;;;;5052468;28;20029;-55
2023/07/08 07:50:47;;;;;;;7.93;6.50;;;25.30;71.00;;;;;;5052773;28;20473;-55
2023/07/08 07:53:33;;;;;;;10.98;6.80;;;25.30;70.80;;;;;;5050722;28;20094;-56
2023/07/08 07:56:19;;;;;;;6.80;6.10;;;25.40;70.80;;;;;;5052224;28;20290;-53
2023/07/08 07:59:05;;;;;;;9.50;6.78;;;25.40;70.80;;;;;;5051689;28;20497;-55
2023/07/08 08:01:51;;;;;;;9.32;6.40;;;25.40;70.50;;;;;;5051731;28;20029;-55
2023/07/08 08:04:37;;;;;;;6.78;6.07;;;25.50;70.60;;;;;;5052574;28;20021;-52
2023/07/08 08:07:23;;;;;;;10.73;8.90;;;25.60;70.70;;;;;;5052111;28;20028;-51
2023/07/08 08:10:09;;;;;;;12.75;8.63;;;25.60;70.40;;;;;;5054389;28;20485;-56
2023/07/08 08:12:55;;;;;;;12.50;7.78;;;25.70;69.90;;;;;;5056434;28;20029;-56
2023/07/08 08:15:41;;;;;;;11.88;7.35;;;25.80;69.90;;;;;;5054890;28;20033;-55
2023/07/08 08:18:27;;;;;;;8.20;6.65;;;25.90;69.70;;;;;;5054525;28;20052;-52
2023/07/08 08:21:13;;;;;;;7.07;6.28;;;25.90;69.40;;;;;;5062497;28;20029;-55
2023/07/08 08:24:00;;;;;;;7.43;5.75;;;26.10;69.10;;;;;;5052444;28;20115;-56
2023/07/08 08:26:46;;;;;;;7.80;6.28;;;26.20;68.70;;;;;;5053545;28;20124;-55
2023/07/08 08:29:32;;;;;;;9.13;6.63;;;26.40;67.90;;;;;;5037744;28;20501;-55
2023/07/08 08:32:18;;;;;;;9.60;6.60;;;26.40;67.60;;;;;;5033214;28;20042;-51
2023/07/08 08:35:04;;;;;;;8.65;6.72;;;26.50;67.10;;;;;;5031043;28;20460;-56
2023/07/08 08:37:50;;;;;;;8.75;6.30;;;26.60;66.60;;;;;;5033052;28;20101;-54
2023/07/08 08:40:39;;;;;;;8.35;6.38;;;26.60;66.60;;;;;;5032882;28;20088;-52
2023/07/08 08:43:45;;;;;;;9.15;6.65;;;26.50;66.60;;;;;;5032811;28;20199;-55
2023/07/08 08:46:48;;;;;;;8.93;6.75;;;26.50;66.80;;;;;;5034787;28;20030;-56
2023/07/08 08:49:47;;;;;;;6.97;6.13;;;26.40;67.30;;;;;;5037275;28;20402;-56
2023/07/08 08:52:33;;;;;;;6.90;5.88;;;26.40;66.80;;;;;;5033064;28;20025;-55
2023/07/08 08:55:19;;;;;;;10.00;6.78;;;26.50;66.80;;;;;;5033067;28;20497;-53
2023/07/08 08:58:17;;;;;;;7.60;6.60;;;26.60;67.10;;;;;;5032150;28;20038;-52
2023/07/08 09:01:08;;;;;;;9.07;6.72;;;26.70;67.10;;;;;;5036674;28;20044;-54
2023/07/08 09:04:04;;;;;;;10.32;6.68;;;26.70;66.80;;;;;;5036838;28;20533;-54
2023/07/08 09:06:52;;;;;;;8.40;6.20;;;26.80;67.00;;;;;;5036353;28;20038;-53
2023/07/08 09:09:53;;;;;;;10.65;6.68;;;26.90;66.70;;;;;;5036543;28;20045;-53
2023/07/08 09:12:40;;;;;;;7.32;6.55;;;27.00;66.80;;;;;;5037334;28;20524;-53
2023/07/08 09:15:26;;;;;;;8.02;6.70;;;27.30;66.80;;;;;;5023003;28;20064;-54
2023/07/08 09:18:25;;;;;;;7.47;6.13;;;27.40;65.90;;;;;;5039761;28;20036;-54
2023/07/08 09:21:18;;;;;;;8.23;6.68;;;27.40;65.50;;;;;;5040275;28;20022;-55
2023/07/08 09:24:14;;;;;;;6.50;5.75;;;27.70;66.30;;;;;;5037380;28;20030;-53
2023/07/08 09:27:01;;;;;;;10.85;6.47;;;27.90;65.80;;;;;;5036529;28;20448;-54
2023/07/08 09:29:48;;;;;;;8.13;6.35;;;28.10;64.30;;;;;;5036488;28;20038;-56
2023/07/08 09:32:34;;;;;;;10.88;6.05;;;28.20;64.10;;;;;;5036434;28;20029;-56
2023/07/08 09:35:26;;;;;;;8.25;6.60;;;28.40;64.00;;;;;;5036263;28;20041;-56
2023/07/08 09:38:22;;;;;;;8.77;7.18;;;28.50;64.00;;;;;;5036309;28;20041;-56
2023/07/08 09:41:08;;;;;;;8.10;6.20;;;28.60;63.50;;;;;;5036130;28;20120;-57
2023/07/08 09:44:13;;;;;;;7.47;6.53;;;28.80;63.20;;;;;;5036199;28;20435;-56
2023/07/08 09:46:59;;;;;;;8.30;6.60;;;29.00;62.60;;;;;;5037227;28;20024;-57
2023/07/08 09:49:47;;;;;;;8.05;6.05;;;29.00;62.30;;;;;;5040774;28;20030;-55
2023/07/08 09:52:33;;;;;;;11.20;6.25;;;29.20;61.40;;;;;;5039767;28;20026;-57
2023/07/08 09:55:20;;;;;;;8.55;6.32;;;29.20;60.60;;;;;;5036538;28;20030;-57
2023/07/08 09:58:13;;;;;;;7.78;5.97;;;29.30;60.20;;;;;;5036262;28;20414;-57
2023/07/08 10:01:08;;;;;;;7.40;6.10;;;29.50;59.20;;;;;;5036222;28;20057;-57
2023/07/08 10:03:59;;;;;;;6.82;5.70;;;29.50;59.50;;;;;;5036508;28;20037;-56
2023/07/08 10:06:47;;;;;;;7.60;6.40;;;29.50;60.00;;;;;;5035529;28;20024;-58
2023/07/08 10:09:34;;;;;;;10.30;6.53;;;29.60;60.50;;;;;;5035830;28;20071;-58
2023/07/08 10:12:22;;;;;;;8.60;6.13;;;29.90;60.40;;;;;;5033378;28;20030;-56
2023/07/08 10:15:33;;;;;;;7.50;6.72;;;29.90;59.50;;;;;;5035827;28;20033;-57
2023/07/08 10:18:28;;;;;;;8.48;6.28;;;29.80;59.10;;;;;;5038621;28;20041;-55
2023/07/08 10:21:38;;;;;;;7.07;6.13;;;29.70;59.80;;;;;;5041966;28;20025;-58
2023/07/08 10:24:59;;;;;;;7.70;6.53;;;29.90;59.20;;;;;;5046469;28;20116;-54
2023/07/08 10:28:19;;;;;;;7.80;6.28;;;30.00;58.80;;;;;;5042020;28;20462;-57
2023/07/08 10:31:27;;;;;;;7.10;6.10;;;30.20;57.30;;;;;;5040012;28;20413;-55
2023/07/08 10:34:49;;;;;;;8.45;5.80;;;30.20;57.20;;;;;;5035569;28;20108;-57
2023/07/08 10:37:41;;;;;;;8.05;5.90;;;30.30;56.70;;;;;;5025905;28;20061;-57
2023/07/08 10:40:45;;;;;;;6.85;6.13;;;30.40;57.20;;;;;;5036492;28;20025;-57
2023/07/08 10:43:52;;;;;;;7.30;5.90;;;30.50;56.80;;;;;;5035742;28;20021;-57
2023/07/08 10:46:49;;;;;;;6.47;5.68;;;30.60;57.10;;;;;;5035007;28;20083;-56
2023/07/08 10:49:45;;;;;;;9.35;6.40;;;30.70;57.00;;;;;;5034434;28;20034;-56
2023/07/08 10:53:01;;;;;;;6.25;5.63;;;30.80;56.80;;;;;;5035046;28;20536;-52
2023/07/08 10:56:12;;;;;;;7.05;6.38;;;30.80;56.40;;;;;;5035584;28;20034;-55
2023/07/08 10:59:16;;;;;;;8.10;5.80;;;30.80;56.40;;;;;;5034910;28;20029;-56
2023/07/08 11:02:21;;;;;;;7.22;6.10;;;30.80;54.90;;;;;;5021422;28;20030;-56
2023/07/08 11:05:22;;;;;;;7.35;6.60;;;30.70;54.00;;;;;;5034580;28;20029;-56
2023/07/08 11:08:44;;;;;;;7.28;6.50;;;30.70;54.70;;;;;;5034241;28;20029;-55
2023/07/08 11:11:40;;;;;;;7.85;7.05;;;30.70;54.60;;;;;;5025942;28;20056;-55
2023/07/08 11:14:34;;;;;;;8.70;7.00;;;30.80;54.70;;;;;;5033184;28;20105;-56
2023/07/08 11:17:28;;;;;;;9.75;6.30;;;30.80;54.90;;;;;;5034311;28;20021;-53
2023/07/08 11:20:20;;;;;;;8.00;6.53;;;30.70;54.30;;;;;;5036757;28;20440;-54
2023/07/08 11:23:26;;;;;;;7.40;6.57;;;30.50;54.30;;;;;;5037675;28;20079;-56
2023/07/08 11:26:35;;;;;;;11.02;6.60;;;30.30;54.80;;;;;;5034440;28;20021;-55
2023/07/08 11:29:45;;;;;;;7.50;6.00;;;30.20;54.80;;;;;;5034022;28;20045;-54
2023/07/08 11:32:33;;;;;;;6.80;6.10;;;30.40;54.20;;;;;;5034129;28;20121;-53
2023/07/08 11:35:27;;;;;;;9.07;5.88;;;30.60;54.70;;;;;;5034001;28;20125;-54
2023/07/08 11:38:19;;;;;;;6.35;5.75;;;30.90;54.60;;;;;;5033804;28;20026;-55
2023/07/08 11:41:14;;;;;;;8.75;6.22;;;31.10;54.00;;;;;;5033927;28;20033;-54
2023/07/08 11:44:04;;;;;;;7.85;5.43;;;31.10;53.00;;;;;;5034469;28;20052;-53
2023/07/08 11:46:55;;;;;;;7.88;6.07;;;31.20;52.40;;;;;;5033630;28;20485;-54
2023/07/08 11:49:41;;;;;;;7.20;6.50;;;31.30;51.80;;;;;;5035496;28;20033;-53
2023/07/08 11:52:30;;;;;;;6.95;6.20;;;31.40;52.50;;;;;;5035537;28;20075;-52
2023/07/08 11:55:24;;;;;;;7.47;5.70;;;31.40;52.30;;;;;;5034305;28;20028;-53
2023/07/08 11:58:22;;;;;;;;;;;31.40;52.40;;;;;;5034231;28;20030;-54
2023/07/08 12:01:11;;;;;;;6.35;5.75;;;31.20;52.30;;;;;;5034606;28;19916;-54
2023/07/08 12:04:32;;;;;;;7.63;6.13;;;31.10;52.60;;;;;;5034686;28;20024;-58
2023/07/08 12:07:28;;;;;;;6.60;5.72;;;31.10;51.90;;;;;;5037948;28;20109;-53
2023/07/08 12:10:26;;;;;;;6.38;5.78;;;31.10;52.40;;;;;;5034495;28;20109;-54
2023/07/08 12:13:17;;;;;;;6.85;6.13;;;31.20;52.00;;;;;;5042466;28;20022;-56
2023/07/08 12:16:12;;;;;;;6.47;5.75;;;31.10;52.40;;;;;;5044826;28;20057;-57
2023/07/08 12:19:00;;;;;;;7.32;5.72;;;31.10;52.50;;;;;;5038965;28;20057;-56
2023/07/08 12:21:46;;;;;;;6.50;5.80;;;31.10;52.30;;;;;;5037238;28;20044;-57
2023/07/08 12:24:32;;;;;;;7.28;5.55;;;31.20;52.40;;;;;;5041022;28;20102;-55
2023/07/08 12:27:18;;;;;;;8.18;6.35;;;31.50;52.50;;;;;;5035709;28;20080;-53
2023/07/08 12:30:05;;;;;;;6.68;6.05;;;31.70;52.00;;;;;;5033903;28;20021;-56
2023/07/08 12:32:51;;;;;;;9.27;6.35;;;31.80;51.30;;;;;;5033319;28;20033;-54
2023/07/08 12:35:37;;;;;;;6.28;5.65;;;32.00;51.50;;;;;;5032810;28;20117;-56
2023/07/08 12:38:41;;;;;;;6.68;5.85;;;31.80;51.70;;;;;;5033294;28;20034;-53
2023/07/08 12:41:35;;;;;;;6.00;5.40;;;31.90;51.60;;;;;;5034166;28;20059;-57
2023/07/08 12:44:21;;;;;;;;;;;31.90;51.30;;;;;;5045901;28;20025;-56
2023/07/08 12:47:08;;;;;;;6.72;5.90;;;31.80;51.30;;;;;;5037199;28;20153;-56
2023/07/08 12:49:54;;;;;;;6.85;6.15;;;32.10;51.60;;;;;;5032464;28;20048;-54
2023/07/08 12:52:42;;;;;;;6.55;5.90;;;32.40;50.60;;;;;;5033407;28;20033;-57
2023/07/08 12:55:28;;;;;;;8.73;5.70;;;32.40;51.10;;;;;;5033981;28;20049;-55
2023/07/08 12:58:28;;;;;;;6.95;6.25;;;32.60;51.20;;;;;;5034177;28;20033;-54
2023/07/08 13:01:19;;;;;;;7.07;5.65;;;32.90;50.80;;;;;;5035090;28;20022;-55
2023/07/08 13:04:09;;;;;;;6.90;5.97;;;33.10;50.50;;;;;;5034992;28;20029;-55
2023/07/08 13:06:55;;;;;;;6.53;5.93;;;33.20;50.70;;;;;;5034721;28;20398;-52
2023/07/08 13:09:45;;;;;;;6.13;5.50;;;33.20;49.80;;;;;;5033473;28;20028;-54
2023/07/08 13:12:37;;;;;;;10.13;6.05;;;33.30;50.10;;;;;;5033455;28;20033;-53
2023/07/08 13:15:33;;;;;;;6.65;6.00;;;33.40;50.20;;;;;;5034127;28;20032;-54
2023/07/08 13:18:33;;;;;;;7.80;6.40;;;33.10;49.50;;;;;;5033276;28;20026;-55
2023/07/08 13:21:19;;;;;;;7.03;6.10;;;33.10;49.50;;;;;;5034809;28;20147;-53
2023/07/08 13:24:11;;;;;;;6.95;5.90;;;33.20;49.90;;;;;;5042147;28;20660;-55
2023/07/08 13:26:57;;;;;;;6.05;5.45;;;33.00;49.50;;;;;;5033302;28;20033;-54
2023/07/08 13:29:43;;;;;;;6.65;6.05;;;32.90;50.10;;;;;;5032628;28;20072;-54
2023/07/08 13:32:31;;;;;;;7.03;5.97;;;33.00;49.50;;;;;;5033119;28;20044;-58
2023/07/08 13:35:35;;;;;;;8.73;6.03;;;33.10;49.40;;;;;;5032550;28;20112;-58
2023/07/08 13:38:24;;;;;;;8.85;5.78;;;33.30;49.00;;;;;;5032895;28;20227;-55
2023/07/08 13:41:17;;;;;;;7.68;6.82;;;33.50;49.20;;;;;;5032656;28;20030;-57
2023/07/08 13:44:07;;;;;;;8.02;6.15;;;33.60;49.60;;;;;;5032827;28;20068;-55
2023/07/08 13:46:57;;;;;;;8.20;5.95;;;33.70;49.20;;;;;;5035591;28;20026;-55
2023/07/08 13:49:46;;;;;;;7.53;6.32;;;33.80;49.20;;;;;;5035978;28;20025;-60
2023/07/08 13:52:32;;;;;;;7.05;6.35;;;33.70;48.70;;;;;;5036277;28;20084;-56
2023/07/08 13:55:20;;;;;;;7.30;6.13;;;33.70;48.90;;;;;;5036458;28;20113;-56
2023/07/08 13:58:10;;;;;;;12.82;6.80;;;33.70;48.70;;;;;;5035817;28;20096;-56
2023/07/08 14:00:57;;;;;;;9.80;6.10;;;33.80;49.20;;;;;;5035862;28;20044;-55
2023/07/08 14:03:43;;;;;;;6.57;5.97;;;33.80;49.90;;;;;;5036167;28;20029;-57
2023/07/08 14:06:35;;;;;;;7.97;5.78;;;34.10;49.50;;;;;;5034872;28;20061;-53
2023/07/08 14:09:22;;;;;;;7.15;6.15;;;34.20;48.50;;;;;;5035771;28;20405;-55
2023/07/08 14:12:08;;;;;;;6.80;6.07;;;34.50;49.30;;;;;;5036208;28;20029;-58
2023/07/08 14:14:54;;;;;;;8.88;6.50;;;34.50;48.30;;;;;;5037393;28;20534;-56
2023/07/08 14:17:40;;;;;;;8.02;6.38;;;34.70;48.30;;;;;;5035331;28;20466;-55
2023/07/08 14:20:29;;;;;;;7.05;6.15;;;35.00;48.00;;;;;;5038064;28;20080;-56
2023/07/08 14:23:15;;;;;;;6.90;6.22;;;35.00;47.80;;;;;;5042868;28;20030;-54
2023/07/08 14:26:01;;;;;;;7.18;5.65;;;35.20;48.20;;;;;;5037337;28;20029;-56
2023/07/08 14:28:47;;;;;;;7.03;5.80;;;35.20;47.70;;;;;;5036323;28;20037;-52
2023/07/08 14:31:33;;;;;;;6.32;5.72;;;35.30;47.10;;;;;;5036071;28;20489;-56
2023/07/08 14:34:24;;;;;;;8.55;5.80;;;35.30;47.00;;;;;;5034812;28;20034;-58
2023/07/08 14:37:16;;;;;;;8.32;5.70;;;35.70;47.80;;;;;;5034424;28;20438;-57
2023/07/08 14:40:24;;;;;;;7.97;5.43;;;36.00;47.20;;;;;;5032770;28;20079;-54
2023/07/08 14:43:16;;;;;;;6.78;5.68;;;36.00;47.00;;;;;;5034967;28;20037;-56